sensor_id;sensor_type;location;lat;lon;timestamp;pressure;altitude;pressure_sealevel;temperature;humidity
52719;BME280;38616;42.140;24.760;2023-06-22T00:02:04;99774.44;;;25.33;49.54
52719;BME280;38616;42.140;24.760;2023-06-22T00:04:30;99764.97;;;25.38;49.41
52719;BME280;38616;42.140;24.760;2023-06-22T00:06:55;99771.31;;;25.38;49.44
52719;BME280;38616;42.140;24.760;2023-06-22T00:09:20;99766.75;;;25.50;49.17
52719;BME280;38616;42.140;24.760;2023-06-22T00:11:46;99777.16;;;25.57;48.87
52719;BME280;38616;42.140;24.760;2023-06-22T00:14:11;99778.03;;;25.64;48.58
52719;BME280;38616;42.140;24.760;2023-06-22T00:16:37;99771.34;;;25.69;48.83
52719;BME280;38616;42.140;24.760;2023-06-22T00:19:02;99773.41;;;25.76;49.00
52719;BME280;38616;42.140;24.760;2023-06-22T00:21:29;99773.50;;;25.83;49.07
52719;BME280;38616;42.140;24.760;2023-06-22T00:23:54;99783.22;;;26.00;48.94
52719;BME280;38616;42.140;24.760;2023-06-22T00:26:20;99785.41;;;25.84;49.17
52719;BME280;38616;42.140;24.760;2023-06-22T00:28:46;99784.75;;;25.60;50.00
52719;BME280;38616;42.140;24.760;2023-06-22T00:31:12;99785.56;;;25.94;49.39
52719;BME280;38616;42.140;24.760;2023-06-22T00:33:37;99791.81;;;25.88;49.79
52719;BME280;38616;42.140;24.760;2023-06-22T00:36:02;99783.72;;;25.75;50.30
52719;BME280;38616;42.140;24.760;2023-06-22T00:38:28;99792.50;;;25.77;50.43
52719;BME280;38616;42.140;24.760;2023-06-22T00:40:56;99794.00;;;25.71;50.72
52719;BME280;38616;42.140;24.760;2023-06-22T00:43:21;99793.13;;;25.63;50.45
52719;BME280;38616;42.140;24.760;2023-06-22T00:45:47;99803.09;;;25.68;50.46
52719;BME280;38616;42.140;24.760;2023-06-22T00:48:13;99795.53;;;25.65;50.78
52719;BME280;38616;42.140;24.760;2023-06-22T00:50:40;99799.47;;;25.64;50.64
52719;BME280;38616;42.140;24.760;2023-06-22T00:53:07;99798.50;;;25.49;51.17
52719;BME280;38616;42.140;24.760;2023-06-22T00:55:33;99798.38;;;25.42;51.55
52719;BME280;38616;42.140;24.760;2023-06-22T00:58:01;99787.38;;;25.22;52.14
52719;BME280;38616;42.140;24.760;2023-06-22T01:00:26;99790.88;;;25.15;52.40
52719;BME280;38616;42.140;24.760;2023-06-22T01:02:52;99787.06;;;25.27;51.57
52719;BME280;38616;42.140;24.760;2023-06-22T01:05:19;99794.13;;;25.21;51.99
52719;BME280;38616;42.140;24.760;2023-06-22T01:13:35;99793.22;;;24.86;52.33
52719;BME280;38616;42.140;24.760;2023-06-22T01:16:07;99796.44;;;24.88;52.62
52719;BME280;38616;42.140;24.760;2023-06-22T01:18:36;99805.16;;;24.87;52.56
52719;BME280;38616;42.140;24.760;2023-06-22T01:21:06;99801.13;;;24.84;52.91
52719;BME280;38616;42.140;24.760;2023-06-22T01:26:22;99792.53;;;24.93;51.99
52719;BME280;38616;42.140;24.760;2023-06-22T01:28:54;99792.25;;;24.75;52.58
52719;BME280;38616;42.140;24.760;2023-06-22T01:31:25;99796.63;;;24.53;53.42
52719;BME280;38616;42.140;24.760;2023-06-22T01:33:54;99793.72;;;24.45;53.92
52719;BME280;38616;42.140;24.760;2023-06-22T01:36:21;99796.56;;;24.49;53.77
52719;BME280;38616;42.140;24.760;2023-06-22T01:38:48;99798.97;;;24.27;54.13
52719;BME280;38616;42.140;24.760;2023-06-22T01:41:15;99791.06;;;24.29;54.38
52719;BME280;38616;42.140;24.760;2023-06-22T01:43:41;99795.50;;;24.11;54.96
52719;BME280;38616;42.140;24.760;2023-06-22T01:46:08;99779.53;;;24.27;54.83
52719;BME280;38616;42.140;24.760;2023-06-22T01:48:33;99776.16;;;24.14;55.00
52719;BME280;38616;42.140;24.760;2023-06-22T01:50:59;99780.75;;;24.07;54.79
52719;BME280;38616;42.140;24.760;2023-06-22T01:53:25;99786.72;;;24.09;55.10
52719;BME280;38616;42.140;24.760;2023-06-22T01:55:51;99790.22;;;23.86;55.46
52719;BME280;38616;42.140;24.760;2023-06-22T01:58:16;99786.97;;;24.00;55.25
52719;BME280;38616;42.140;24.760;2023-06-22T02:00:49;99787.47;;;24.05;55.11
52719;BME280;38616;42.140;24.760;2023-06-22T02:03:22;99797.78;;;24.28;54.67
52719;BME280;38616;42.140;24.760;2023-06-22T02:05:50;99802.84;;;24.23;54.69
52719;BME280;38616;42.140;24.760;2023-06-22T02:08:32;99789.72;;;24.43;53.99
52719;BME280;38616;42.140;24.760;2023-06-22T02:11:02;99790.19;;;24.25;53.66
52719;BME280;38616;42.140;24.760;2023-06-22T02:13:28;99789.34;;;24.21;53.63
52719;BME280;38616;42.140;24.760;2023-06-22T02:15:54;99792.78;;;24.14;53.85
52719;BME280;38616;42.140;24.760;2023-06-22T02:18:19;99791.69;;;24.19;53.82
52719;BME280;38616;42.140;24.760;2023-06-22T02:20:45;99797.53;;;24.37;53.40
52719;BME280;38616;42.140;24.760;2023-06-22T02:23:11;99798.72;;;24.36;53.33
52719;BME280;38616;42.140;24.760;2023-06-22T02:25:36;99796.88;;;24.44;53.00
52719;BME280;38616;42.140;24.760;2023-06-22T02:28:02;99797.97;;;24.16;53.81
52719;BME280;38616;42.140;24.760;2023-06-22T02:30:28;99801.41;;;23.89;54.68
52719;BME280;38616;42.140;24.760;2023-06-22T02:32:53;99804.84;;;23.63;55.47
52719;BME280;38616;42.140;24.760;2023-06-22T02:35:27;99797.63;;;23.23;57.04
52719;BME280;38616;42.140;24.760;2023-06-22T02:37:59;99802.34;;;23.58;56.17
52719;BME280;38616;42.140;24.760;2023-06-22T02:40:26;99808.69;;;23.98;55.00
52719;BME280;38616;42.140;24.760;2023-06-22T02:42:51;99809.06;;;23.96;54.95
52719;BME280;38616;42.140;24.760;2023-06-22T02:45:17;99809.63;;;23.86;54.96
52719;BME280;38616;42.140;24.760;2023-06-22T02:47:42;99817.41;;;23.76;55.14
52719;BME280;38616;42.140;24.760;2023-06-22T02:50:08;99816.97;;;23.74;55.41
52719;BME280;38616;42.140;24.760;2023-06-22T02:52:34;99823.50;;;23.86;55.14
52719;BME280;38616;42.140;24.760;2023-06-22T02:54:59;99815.13;;;23.82;54.82
52719;BME280;38616;42.140;24.760;2023-06-22T02:57:25;99818.34;;;23.84;54.70
52719;BME280;38616;42.140;24.760;2023-06-22T02:59:50;99825.06;;;23.83;54.81
52719;BME280;38616;42.140;24.760;2023-06-22T03:02:16;99824.91;;;23.76;54.94
52719;BME280;38616;42.140;24.760;2023-06-22T03:04:41;99824.50;;;23.38;55.57
52719;BME280;38616;42.140;24.760;2023-06-22T03:07:07;99830.44;;;23.05;56.16
52719;BME280;38616;42.140;24.760;2023-06-22T03:09:33;99838.75;;;22.56;57.39
52719;BME280;38616;42.140;24.760;2023-06-22T03:11:58;99830.22;;;22.33;58.87
52719;BME280;38616;42.140;24.760;2023-06-22T03:14:24;99831.59;;;22.39;58.77
52719;BME280;38616;42.140;24.760;2023-06-22T03:16:51;99824.81;;;22.85;57.46
52719;BME280;38616;42.140;24.760;2023-06-22T03:19:17;99839.47;;;23.01;56.96
52719;BME280;38616;42.140;24.760;2023-06-22T03:21:42;99835.09;;;23.33;56.34
52719;BME280;38616;42.140;24.760;2023-06-22T03:24:08;99837.91;;;23.36;55.80
52719;BME280;38616;42.140;24.760;2023-06-22T03:26:35;99840.88;;;23.11;55.12
52719;BME280;38616;42.140;24.760;2023-06-22T03:29:00;99842.16;;;22.66;55.39
52719;BME280;38616;42.140;24.760;2023-06-22T03:31:26;99839.66;;;22.77;55.39
52719;BME280;38616;42.140;24.760;2023-06-22T03:33:51;99842.88;;;22.95;55.20
52719;BME280;38616;42.140;24.760;2023-06-22T03:36:18;99853.41;;;22.57;55.99
52719;BME280;38616;42.140;24.760;2023-06-22T03:38:48;99854.78;;;22.79;55.35
52719;BME280;38616;42.140;24.760;2023-06-22T03:41:14;99851.28;;;22.38;56.63
52719;BME280;38616;42.140;24.760;2023-06-22T03:43:42;99848.69;;;22.73;55.97
52719;BME280;38616;42.140;24.760;2023-06-22T03:46:07;99850.03;;;22.80;55.92
52719;BME280;38616;42.140;24.760;2023-06-22T03:48:33;99850.81;;;22.48;56.34
52719;BME280;38616;42.140;24.760;2023-06-22T03:51:02;99857.06;;;22.45;56.58
52719;BME280;38616;42.140;24.760;2023-06-22T03:53:30;99850.19;;;22.55;56.37
52719;BME280;38616;42.140;24.760;2023-06-22T03:55:56;99862.38;;;22.82;56.15
52719;BME280;38616;42.140;24.760;2023-06-22T03:58:22;99854.66;;;22.60;56.56
52719;BME280;38616;42.140;24.760;2023-06-22T04:00:49;99842.09;;;22.78;56.35
52719;BME280;38616;42.140;24.760;2023-06-22T04:03:15;99851.91;;;22.76;56.58
52719;BME280;38616;42.140;24.760;2023-06-22T04:05:41;99833.97;;;22.85;56.10
52719;BME280;38616;42.140;24.760;2023-06-22T04:08:07;99841.06;;;23.18;55.52
52719;BME280;38616;42.140;24.760;2023-06-22T04:10:33;99836.34;;;23.55;54.79
52719;BME280;38616;42.140;24.760;2023-06-22T04:13:00;99850.81;;;23.64;54.17
52719;BME280;38616;42.140;24.760;2023-06-22T04:15:25;99848.94;;;23.52;54.18
52719;BME280;38616;42.140;24.760;2023-06-22T04:17:55;99849.03;;;23.20;55.30
52719;BME280;38616;42.140;24.760;2023-06-22T04:20:20;99861.38;;;23.23;55.28
52719;BME280;38616;42.140;24.760;2023-06-22T04:22:46;99856.47;;;23.52;54.65
52719;BME280;38616;42.140;24.760;2023-06-22T04:25:14;99856.16;;;23.37;55.04
52719;BME280;38616;42.140;24.760;2023-06-22T04:27:39;99863.19;;;23.51;55.23
52719;BME280;38616;42.140;24.760;2023-06-22T04:30:06;99853.22;;;23.30;55.57
52719;BME280;38616;42.140;24.760;2023-06-22T04:32:32;99857.66;;;23.18;55.91
52719;BME280;38616;42.140;24.760;2023-06-22T04:34:58;99852.50;;;23.01;56.84
52719;BME280;38616;42.140;24.760;2023-06-22T04:37:25;99853.59;;;23.28;56.38
52719;BME280;38616;42.140;24.760;2023-06-22T04:39:51;99855.06;;;23.78;54.78
52719;BME280;38616;42.140;24.760;2023-06-22T04:42:16;99864.41;;;24.09;53.98
52719;BME280;38616;42.140;24.760;2023-06-22T04:44:41;99864.50;;;24.12;53.77
52719;BME280;38616;42.140;24.760;2023-06-22T04:47:07;99865.41;;;24.40;53.07
52719;BME280;38616;42.140;24.760;2023-06-22T04:49:36;99866.91;;;24.14;53.16
52719;BME280;38616;42.140;24.760;2023-06-22T04:52:04;99863.56;;;23.69;54.13
52719;BME280;38616;42.140;24.760;2023-06-22T04:54:29;99865.34;;;23.77;54.27
52719;BME280;38616;42.140;24.760;2023-06-22T04:57:01;99860.34;;;24.02;53.95
52719;BME280;38616;42.140;24.760;2023-06-22T04:59:28;99860.28;;;24.42;53.32
52719;BME280;38616;42.140;24.760;2023-06-22T05:01:58;99841.91;;;24.33;53.49
52719;BME280;38616;42.140;24.760;2023-06-22T05:04:25;99849.16;;;24.61;53.16
52719;BME280;38616;42.140;24.760;2023-06-22T05:06:54;99843.22;;;24.86;52.29
52719;BME280;38616;42.140;24.760;2023-06-22T05:09:22;99839.91;;;24.77;52.35
52719;BME280;38616;42.140;24.760;2023-06-22T05:11:48;99843.16;;;25.06;52.16
52719;BME280;38616;42.140;24.760;2023-06-22T05:14:14;99840.31;;;25.02;52.42
52719;BME280;38616;42.140;24.760;2023-06-22T05:16:41;99838.97;;;25.19;51.43
52719;BME280;38616;42.140;24.760;2023-06-22T05:19:07;99846.88;;;24.90;51.82
52719;BME280;38616;42.140;24.760;2023-06-22T05:21:33;99840.88;;;24.65;52.82
52719;BME280;38616;42.140;24.760;2023-06-22T05:23:58;99839.81;;;24.97;52.21
52719;BME280;38616;42.140;24.760;2023-06-22T05:26:29;99840.81;;;24.61;52.49
52719;BME280;38616;42.140;24.760;2023-06-22T05:28:55;99827.09;;;24.96;51.96
52719;BME280;38616;42.140;24.760;2023-06-22T05:31:21;99844.94;;;24.71;52.38
52719;BME280;38616;42.140;24.760;2023-06-22T05:33:48;99842.91;;;24.91;52.50
52719;BME280;38616;42.140;24.760;2023-06-22T05:36:14;99842.78;;;24.84;52.95
52719;BME280;38616;42.140;24.760;2023-06-22T05:38:45;99846.16;;;24.50;54.01
52719;BME280;38616;42.140;24.760;2023-06-22T05:41:10;99843.94;;;24.60;53.78
52719;BME280;38616;42.140;24.760;2023-06-22T05:43:35;99844.16;;;24.71;53.95
52719;BME280;38616;42.140;24.760;2023-06-22T05:46:03;99840.00;;;24.84;53.70
52719;BME280;38616;42.140;24.760;2023-06-22T05:48:29;99843.72;;;25.19;52.77
52719;BME280;38616;42.140;24.760;2023-06-22T05:50:55;99846.47;;;25.15;51.96
52719;BME280;38616;42.140;24.760;2023-06-22T05:53:20;99849.16;;;25.35;52.10
52719;BME280;38616;42.140;24.760;2023-06-22T05:55:46;99844.66;;;25.27;51.90
52719;BME280;38616;42.140;24.760;2023-06-22T05:58:11;99852.88;;;25.19;51.86
52719;BME280;38616;42.140;24.760;2023-06-22T06:00:38;99849.16;;;25.35;51.72
52719;BME280;38616;42.140;24.760;2023-06-22T06:03:04;99842.75;;;25.34;51.00
52719;BME280;38616;42.140;24.760;2023-06-22T06:05:33;99836.06;;;25.66;50.22
52719;BME280;38616;42.140;24.760;2023-06-22T06:08:04;99834.78;;;25.90;49.90
52719;BME280;38616;42.140;24.760;2023-06-22T06:10:33;99841.06;;;25.84;49.60
52719;BME280;38616;42.140;24.760;2023-06-22T06:12:59;99837.81;;;25.78;48.93
52719;BME280;38616;42.140;24.760;2023-06-22T06:15:27;99848.41;;;25.99;48.63
52719;BME280;38616;42.140;24.760;2023-06-22T06:17:53;99845.91;;;26.21;48.15
52719;BME280;38616;42.140;24.760;2023-06-22T06:20:20;99837.16;;;25.88;48.79
52719;BME280;38616;42.140;24.760;2023-06-22T06:22:46;99837.34;;;26.06;48.39
52719;BME280;38616;42.140;24.760;2023-06-22T06:25:12;99834.13;;;26.01;48.25
52719;BME280;38616;42.140;24.760;2023-06-22T06:27:45;99829.53;;;26.16;47.91
52719;BME280;38616;42.140;24.760;2023-06-22T06:30:11;99828.94;;;26.37;47.83
52719;BME280;38616;42.140;24.760;2023-06-22T06:32:37;99826.34;;;26.14;47.70
52719;BME280;38616;42.140;24.760;2023-06-22T06:35:08;99827.94;;;26.15;47.06
52719;BME280;38616;42.140;24.760;2023-06-22T06:37:37;99829.53;;;26.16;47.49
52719;BME280;38616;42.140;24.760;2023-06-22T06:40:13;99827.25;;;26.25;47.30
52719;BME280;38616;42.140;24.760;2023-06-22T06:42:43;99831.81;;;26.44;47.13
52719;BME280;38616;42.140;24.760;2023-06-22T06:45:20;99835.22;;;26.72;45.95
52719;BME280;38616;42.140;24.760;2023-06-22T06:47:48;99830.34;;;27.03;46.00
52719;BME280;38616;42.140;24.760;2023-06-22T06:50:13;99828.78;;;27.09;45.16
52719;BME280;38616;42.140;24.760;2023-06-22T06:52:39;99829.75;;;27.35;44.82
52719;BME280;38616;42.140;24.760;2023-06-22T06:55:05;99829.25;;;27.18;44.14
52719;BME280;38616;42.140;24.760;2023-06-22T06:57:39;99824.19;;;27.42;44.16
52719;BME280;38616;42.140;24.760;2023-06-22T07:00:06;99825.94;;;27.61;44.27
52719;BME280;38616;42.140;24.760;2023-06-22T07:02:41;99825.91;;;27.57;43.85
52719;BME280;38616;42.140;24.760;2023-06-22T07:05:07;99822.66;;;27.48;44.11
52719;BME280;38616;42.140;24.760;2023-06-22T07:07:32;99818.59;;;27.42;43.83
52719;BME280;38616;42.140;24.760;2023-06-22T07:09:58;99820.00;;;27.77;43.77
52719;BME280;38616;42.140;24.760;2023-06-22T07:12:24;99815.81;;;27.42;43.38
52719;BME280;38616;42.140;24.760;2023-06-22T07:14:49;99823.47;;;27.52;43.34
52719;BME280;38616;42.140;24.760;2023-06-22T07:17:15;99815.22;;;27.74;43.29
52719;BME280;38616;42.140;24.760;2023-06-22T07:19:41;99816.84;;;27.82;43.66
52719;BME280;38616;42.140;24.760;2023-06-22T07:22:07;99827.50;;;27.58;44.05
52719;BME280;38616;42.140;24.760;2023-06-22T07:24:33;99821.88;;;27.51;43.46
52719;BME280;38616;42.140;24.760;2023-06-22T07:26:58;99820.81;;;27.81;43.21
52719;BME280;38616;42.140;24.760;2023-06-22T07:29:25;99817.66;;;27.97;42.42
52719;BME280;38616;42.140;24.760;2023-06-22T07:31:52;99830.13;;;28.14;42.60
52719;BME280;38616;42.140;24.760;2023-06-22T07:34:18;99836.41;;;27.93;42.22
52719;BME280;38616;42.140;24.760;2023-06-22T07:36:44;99831.94;;;27.70;42.63
52719;BME280;38616;42.140;24.760;2023-06-22T07:39:11;99832.28;;;27.62;42.87
52719;BME280;38616;42.140;24.760;2023-06-22T07:41:38;99829.94;;;27.71;43.22
52719;BME280;38616;42.140;24.760;2023-06-22T07:44:04;99824.03;;;27.94;42.49
52719;BME280;38616;42.140;24.760;2023-06-22T07:46:30;99834.78;;;27.92;41.24
52719;BME280;38616;42.140;24.760;2023-06-22T07:48:56;99828.03;;;27.90;40.96
52719;BME280;38616;42.140;24.760;2023-06-22T07:51:22;99838.03;;;28.09;40.72
52719;BME280;38616;42.140;24.760;2023-06-22T07:53:47;99831.34;;;28.21;40.29
52719;BME280;38616;42.140;24.760;2023-06-22T07:56:13;99827.34;;;28.22;39.54
52719;BME280;38616;42.140;24.760;2023-06-22T07:58:44;99827.72;;;28.13;40.47
52719;BME280;38616;42.140;24.760;2023-06-22T08:01:09;99821.00;;;28.61;40.47
52719;BME280;38616;42.140;24.760;2023-06-22T08:03:36;99813.84;;;28.82;39.78
52719;BME280;38616;42.140;24.760;2023-06-22T08:06:01;99817.41;;;28.97;39.05
52719;BME280;38616;42.140;24.760;2023-06-22T08:08:27;99815.78;;;29.17;38.81
52719;BME280;38616;42.140;24.760;2023-06-22T08:10:52;99817.03;;;29.05;37.85
52719;BME280;38616;42.140;24.760;2023-06-22T08:13:17;99820.63;;;29.02;37.62
52719;BME280;38616;42.140;24.760;2023-06-22T08:15:43;99813.44;;;28.80;38.48
52719;BME280;38616;42.140;24.760;2023-06-22T08:18:08;99807.84;;;28.94;37.62
52719;BME280;38616;42.140;24.760;2023-06-22T08:20:34;99807.84;;;28.94;37.38
52719;BME280;38616;42.140;24.760;2023-06-22T08:22:59;99806.66;;;28.70;37.87
52719;BME280;38616;42.140;24.760;2023-06-22T08:25:30;99805.84;;;29.13;37.69
52719;BME280;38616;42.140;24.760;2023-06-22T08:27:56;99809.38;;;29.28;37.17
52719;BME280;38616;42.140;24.760;2023-06-22T08:30:21;99788.16;;;29.45;36.81
52719;BME280;38616;42.140;24.760;2023-06-22T08:32:46;99793.28;;;29.64;36.70
52719;BME280;38616;42.140;24.760;2023-06-22T08:35:12;99792.88;;;29.70;36.60
52719;BME280;38616;42.140;24.760;2023-06-22T08:37:37;99788.41;;;29.83;35.58
52719;BME280;38616;42.140;24.760;2023-06-22T08:40:06;99785.97;;;29.92;34.88
52719;BME280;38616;42.140;24.760;2023-06-22T08:42:36;99779.59;;;29.88;34.61
52719;BME280;38616;42.140;24.760;2023-06-22T08:45:02;99778.78;;;29.91;34.99
52719;BME280;38616;42.140;24.760;2023-06-22T08:47:28;99784.00;;;29.82;35.11
52719;BME280;38616;42.140;24.760;2023-06-22T08:49:53;99782.78;;;29.90;34.94
52719;BME280;38616;42.140;24.760;2023-06-22T08:52:19;99773.50;;;30.04;34.43
52719;BME280;38616;42.140;24.760;2023-06-22T08:54:48;99777.59;;;29.82;34.81
52719;BME280;38616;42.140;24.760;2023-06-22T08:57:14;99790.56;;;29.35;35.70
52719;BME280;38616;42.140;24.760;2023-06-22T08:59:39;99793.78;;;29.38;36.03
52719;BME280;38616;42.140;24.760;2023-06-22T09:02:05;99783.72;;;29.58;35.90
52719;BME280;38616;42.140;24.760;2023-06-22T09:04:31;99781.69;;;29.70;35.10
52719;BME280;38616;42.140;24.760;2023-06-22T09:07:00;99785.16;;;29.92;34.80
52719;BME280;38616;42.140;24.760;2023-06-22T09:09:26;99787.25;;;29.77;33.60
52719;BME280;38616;42.140;24.760;2023-06-22T09:11:51;99778.78;;;29.88;34.20
52719;BME280;38616;42.140;24.760;2023-06-22T09:14:16;99776.22;;;30.15;33.02
52719;BME280;38616;42.140;24.760;2023-06-22T09:16:42;99776.13;;;30.30;32.92
52719;BME280;38616;42.140;24.760;2023-06-22T09:19:07;99768.38;;;30.48;32.47
52719;BME280;38616;42.140;24.760;2023-06-22T09:21:33;99780.66;;;30.69;33.18
52719;BME280;38616;42.140;24.760;2023-06-22T09:23:58;99771.34;;;30.79;32.16
52719;BME280;38616;42.140;24.760;2023-06-22T09:26:24;99769.38;;;30.76;31.95
52719;BME280;38616;42.140;24.760;2023-06-22T09:28:49;99767.72;;;30.83;31.83
52719;BME280;38616;42.140;24.760;2023-06-22T09:31:15;99761.31;;;30.82;31.89
52719;BME280;38616;42.140;24.760;2023-06-22T09:33:41;99758.75;;;30.95;31.99
52719;BME280;38616;42.140;24.760;2023-06-22T09:36:07;99762.78;;;30.94;31.60
52719;BME280;38616;42.140;24.760;2023-06-22T09:38:38;99761.13;;;30.55;33.01
52719;BME280;38616;42.140;24.760;2023-06-22T09:41:04;99762.81;;;30.45;32.14
52719;BME280;38616;42.140;24.760;2023-06-22T09:43:32;99756.94;;;30.28;31.34
52719;BME280;38616;42.140;24.760;2023-06-22T09:46:00;99754.50;;;30.34;32.18
52719;BME280;38616;42.140;24.760;2023-06-22T09:48:26;99759.16;;;30.51;32.16
52719;BME280;38616;42.140;24.760;2023-06-22T09:50:52;99756.59;;;30.72;31.75
52719;BME280;38616;42.140;24.760;2023-06-22T09:53:17;99750.41;;;30.91;31.75
52719;BME280;38616;42.140;24.760;2023-06-22T09:55:42;99747.13;;;30.96;31.97
52719;BME280;38616;42.140;24.760;2023-06-22T09:58:08;99751.56;;;30.94;31.71
52719;BME280;38616;42.140;24.760;2023-06-22T10:00:34;99755.47;;;31.04;31.13
52719;BME280;38616;42.140;24.760;2023-06-22T10:02:59;99755.31;;;30.31;31.64
52719;BME280;38616;42.140;24.760;2023-06-22T10:05:24;99749.22;;;30.43;31.92
52719;BME280;38616;42.140;24.760;2023-06-22T10:07:50;99752.41;;;30.45;32.11
52719;BME280;38616;42.140;24.760;2023-06-22T10:10:18;99753.59;;;30.44;31.36
52719;BME280;38616;42.140;24.760;2023-06-22T10:12:46;99748.31;;;30.54;31.12
52719;BME280;38616;42.140;24.760;2023-06-22T10:15:12;99748.59;;;30.17;31.59
52719;BME280;38616;42.140;24.760;2023-06-22T10:17:37;99743.66;;;30.40;31.86
52719;BME280;38616;42.140;24.760;2023-06-22T10:20:04;99743.91;;;30.60;31.39
52719;BME280;38616;42.140;24.760;2023-06-22T10:22:36;99741.34;;;30.76;30.71
52719;BME280;38616;42.140;24.760;2023-06-22T10:25:02;99744.91;;;30.80;30.70
52719;BME280;38616;42.140;24.760;2023-06-22T10:27:27;99736.25;;;30.64;30.92
52719;BME280;38616;42.140;24.760;2023-06-22T10:29:52;99734.84;;;30.87;30.14
52719;BME280;38616;42.140;24.760;2023-06-22T10:32:19;99734.56;;;31.08;30.33
52719;BME280;38616;42.140;24.760;2023-06-22T10:34:44;99731.31;;;31.17;30.28
52719;BME280;38616;42.140;24.760;2023-06-22T10:37:10;99719.09;;;31.35;31.24
52719;BME280;38616;42.140;24.760;2023-06-22T10:39:35;99720.47;;;31.50;30.19
52719;BME280;38616;42.140;24.760;2023-06-22T10:42:00;99710.31;;;31.60;30.51
52719;BME280;38616;42.140;24.760;2023-06-22T10:44:26;99709.34;;;31.74;29.33
52719;BME280;38616;42.140;24.760;2023-06-22T10:46:51;99713.06;;;31.64;29.12
52719;BME280;38616;42.140;24.760;2023-06-22T10:49:17;99709.31;;;31.47;29.30
52719;BME280;38616;42.140;24.760;2023-06-22T10:51:42;99699.09;;;31.29;29.78
52719;BME280;38616;42.140;24.760;2023-06-22T10:54:07;99701.00;;;31.01;30.79
52719;BME280;38616;42.140;24.760;2023-06-22T10:56:33;99694.56;;;31.04;30.22
52719;BME280;38616;42.140;24.760;2023-06-22T10:58:59;99701.84;;;30.98;29.89
52719;BME280;38616;42.140;24.760;2023-06-22T11:01:24;99691.59;;;30.84;30.01
52719;BME280;38616;42.140;24.760;2023-06-22T11:03:49;99687.19;;;31.21;29.50
52719;BME280;38616;42.140;24.760;2023-06-22T11:06:15;99683.94;;;31.54;29.00
52719;BME280;38616;42.140;24.760;2023-06-22T11:08:44;99685.75;;;31.68;28.95
52719;BME280;38616;42.140;24.760;2023-06-22T11:11:09;99680.94;;;31.68;28.56
52719;BME280;38616;42.140;24.760;2023-06-22T11:13:34;99683.56;;;31.52;29.01
52719;BME280;38616;42.140;24.760;2023-06-22T11:16:00;99687.69;;;31.44;28.84
52719;BME280;38616;42.140;24.760;2023-06-22T11:18:25;99685.81;;;31.33;28.65
52719;BME280;38616;42.140;24.760;2023-06-22T11:20:51;99684.41;;;31.49;28.60
52719;BME280;38616;42.140;24.760;2023-06-22T11:23:16;99683.69;;;31.41;29.13
52719;BME280;38616;42.140;24.760;2023-06-22T11:25:41;99688.59;;;31.64;29.65
52719;BME280;38616;42.140;24.760;2023-06-22T11:28:08;99682.84;;;31.44;29.12
52719;BME280;38616;42.140;24.760;2023-06-22T11:30:38;99681.47;;;31.29;29.63
52719;BME280;38616;42.140;24.760;2023-06-22T11:33:03;99677.22;;;31.48;29.76
52719;BME280;38616;42.140;24.760;2023-06-22T11:35:29;99684.88;;;31.44;29.88
52719;BME280;38616;42.140;24.760;2023-06-22T11:37:54;99682.00;;;31.47;29.48
52719;BME280;38616;42.140;24.760;2023-06-22T11:40:21;99683.06;;;31.30;29.29
52719;BME280;38616;42.140;24.760;2023-06-22T11:42:48;99684.03;;;31.47;28.32
52719;BME280;38616;42.140;24.760;2023-06-22T11:45:13;99681.88;;;31.58;28.74
52719;BME280;38616;42.140;24.760;2023-06-22T11:47:39;99682.53;;;31.69;29.05
52719;BME280;38616;42.140;24.760;2023-06-22T11:50:05;99683.31;;;31.70;29.00
52719;BME280;38616;42.140;24.760;2023-06-22T11:52:31;99680.38;;;31.50;29.11
52719;BME280;38616;42.140;24.760;2023-06-22T11:54:56;99680.56;;;31.94;28.70
52719;BME280;38616;42.140;24.760;2023-06-22T11:57:22;99687.16;;;31.83;28.74
52719;BME280;38616;42.140;24.760;2023-06-22T11:59:47;99671.81;;;31.88;28.93
52719;BME280;38616;42.140;24.760;2023-06-22T12:02:12;99679.41;;;31.91;28.71
52719;BME280;38616;42.140;24.760;2023-06-22T12:04:38;99672.66;;;31.85;28.95
52719;BME280;38616;42.140;24.760;2023-06-22T12:07:03;99674.88;;;31.97;29.38
52719;BME280;38616;42.140;24.760;2023-06-22T12:09:29;99668.44;;;32.24;28.67
52719;BME280;38616;42.140;24.760;2023-06-22T12:11:54;99677.50;;;32.36;28.27
52719;BME280;38616;42.140;24.760;2023-06-22T12:14:19;99660.56;;;32.39;28.50
52719;BME280;38616;42.140;24.760;2023-06-22T12:16:45;99663.09;;;32.54;28.85
52719;BME280;38616;42.140;24.760;2023-06-22T12:19:11;99662.06;;;32.68;29.40
52719;BME280;38616;42.140;24.760;2023-06-22T12:21:37;99660.53;;;32.83;29.80
52719;BME280;38616;42.140;24.760;2023-06-22T12:24:02;99651.31;;;32.83;29.61
52719;BME280;38616;42.140;24.760;2023-06-22T12:26:28;99649.66;;;32.85;29.58
52719;BME280;38616;42.140;24.760;2023-06-22T12:28:53;99643.66;;;32.63;28.83
52719;BME280;38616;42.140;24.760;2023-06-22T12:31:19;99640.09;;;32.15;29.32
52719;BME280;38616;42.140;24.760;2023-06-22T12:33:44;99648.09;;;31.93;29.57
52719;BME280;38616;42.140;24.760;2023-06-22T12:36:09;99645.56;;;31.98;29.31
52719;BME280;38616;42.140;24.760;2023-06-22T12:38:35;99638.16;;;32.36;29.89
52719;BME280;38616;42.140;24.760;2023-06-22T12:41:00;99630.09;;;32.38;29.81
52719;BME280;38616;42.140;24.760;2023-06-22T12:43:26;99637.66;;;32.61;29.74
52719;BME280;38616;42.140;24.760;2023-06-22T12:45:51;99633.00;;;32.54;29.33
52719;BME280;38616;42.140;24.760;2023-06-22T12:48:18;99634.59;;;32.55;29.88
52719;BME280;38616;42.140;24.760;2023-06-22T12:50:44;99623.69;;;32.57;29.90
52719;BME280;38616;42.140;24.760;2023-06-22T12:53:09;99632.13;;;32.57;30.08
52719;BME280;38616;42.140;24.760;2023-06-22T12:55:34;99630.72;;;32.46;29.96